メインページ
METAR-TAF:

METAR-TAF

空港 :

Prince George, ブリティッシュコロンビア州, カナダ

緯度: 53-53N, 経度: 122-41W, 海抜: 691m

現時点の気象観測

当レポートは39分前の09:00(UTC)に作成
西/南西の風 2kt
気温 5°C
湿度 93%
気圧 1018 hPa
視程: 14.5km
晴天

METAR: CYXS 230900Z AUTO 25002KT 9SM CLR 05/04 A3005 RMK SLP188

時間: 02:39 (09:39 UTC)

予報

当レポートは3時間1分前の06:38(UTC)に作成
予報は23日の 07時(UTC)から 23日の 19時(UTC)まで有効
変向風 3kt
視程: 10km
晴天

TAF: CYXS 230638Z 2307/2319 VRB03KT P6SM SKC RMK FCST BASED ON AUTO OBS. NXT FCST BY 231300Z

4,000以上の空港の気象観測と天気予報(METAR報とTAF報)

利用可能な観測所は地図上に黄色い丸と赤い丸で示す。

丸の上にカーソルを重ねると観測所名を参照できる。

次にクリックすると気象観測と天気予報を参照できる。

マップの切り替え:黒色「×」印の緑ボタンをクリックして拡大、「-」印の緑ボタンをクリックして縮小、緑色の三角印をクリックして隣りの地図に切り替え


METAR-TAF: